sensor_id;sensor_type;location;lat;lon;timestamp;temperature;humidity
50690;DHT22;71367;48.298;11.238;2023-08-24T00:11:45;20.30;97.90
50690;DHT22;71367;48.298;11.238;2023-08-24T00:26:48;20.10;98.00
50690;DHT22;71367;48.298;11.238;2023-08-24T00:41:52;19.90;98.00
50690;DHT22;71367;48.298;11.238;2023-08-24T00:56:56;19.70;98.50
50690;DHT22;71367;48.298;11.238;2023-08-24T01:12:02;19.40;98.80
50690;DHT22;71367;48.298;11.238;2023-08-24T01:27:08;19.20;99.30
50690;DHT22;71367;48.298;11.238;2023-08-24T01:42:17;19.00;98.80
50690;DHT22;71367;48.298;11.238;2023-08-24T01:57:22;18.90;99.40
50690;DHT22;71367;48.298;11.238;2023-08-24T02:12:25;18.80;99.30
50690;DHT22;71367;48.298;11.238;2023-08-24T02:27:30;18.60;99.90
50690;DHT22;71367;48.298;11.238;2023-08-24T02:42:35;18.40;99.90
50690;DHT22;71367;48.298;11.238;2023-08-24T02:57:38;18.20;99.90
50690;DHT22;71367;48.298;11.238;2023-08-24T03:12:42;18.10;99.90
50690;DHT22;71367;48.298;11.238;2023-08-24T03:27:45;18.00;99.90
50690;DHT22;71367;48.298;11.238;2023-08-24T03:42:49;18.00;99.90
50690;DHT22;71367;48.298;11.238;2023-08-24T03:57:53;18.00;99.90
50690;DHT22;71367;48.298;11.238;2023-08-24T04:12:56;17.80;99.90
50690;DHT22;71367;48.298;11.238;2023-08-24T04:28:00;17.70;99.90
50690;DHT22;71367;48.298;11.238;2023-08-24T04:43:03;17.60;99.90
50690;DHT22;71367;48.298;11.238;2023-08-24T04:58:07;17.60;99.90
50690;DHT22;71367;48.298;11.238;2023-08-24T05:13:11;17.60;99.90
50690;DHT22;71367;48.298;11.238;2023-08-24T05:28:15;17.80;99.90
50690;DHT22;71367;48.298;11.238;2023-08-24T05:43:18;18.10;99.90
50690;DHT22;71367;48.298;11.238;2023-08-24T05:58:22;18.40;99.90
50690;DHT22;71367;48.298;11.238;2023-08-24T06:13:26;18.90;99.90
50690;DHT22;71367;48.298;11.238;2023-08-24T06:28:29;19.70;99.90
50690;DHT22;71367;48.298;11.238;2023-08-24T06:43:33;21.00;99.30
50690;DHT22;71367;48.298;11.238;2023-08-24T06:58:37;22.00;96.80
50690;DHT22;71367;48.298;11.238;2023-08-24T07:13:40;22.40;96.50
50690;DHT22;71367;48.298;11.238;2023-08-24T07:28:44;23.80;95.70
50690;DHT22;71367;48.298;11.238;2023-08-24T07:43:47;25.20;92.80
50690;DHT22;71367;48.298;11.238;2023-08-24T07:58:51;26.50;90.50
50690;DHT22;71367;48.298;11.238;2023-08-24T08:13:55;27.60;88.40
50690;DHT22;71367;48.298;11.238;2023-08-24T08:28:58;28.60;85.60
50690;DHT22;71367;48.298;11.238;2023-08-24T08:44:05;29.70;81.20
50690;DHT22;71367;48.298;11.238;2023-08-24T08:59:12;30.70;76.50
50690;DHT22;71367;48.298;11.238;2023-08-24T09:14:17;31.70;72.50
50690;DHT22;71367;48.298;11.238;2023-08-24T09:29:21;31.00;71.80
50690;DHT22;71367;48.298;11.238;2023-08-24T09:44:28;30.60;73.10
50690;DHT22;71367;48.298;11.238;2023-08-24T09:59:31;31.40;73.20
50690;DHT22;71367;48.298;11.238;2023-08-24T10:14:47;32.50;69.80
50690;DHT22;71367;48.298;11.238;2023-08-24T10:29:54;33.30;66.80
50690;DHT22;71367;48.298;11.238;2023-08-24T10:44:58;34.20;64.10
50690;DHT22;71367;48.298;11.238;2023-08-24T11:00:08;34.50;61.00
50690;DHT22;71367;48.298;11.238;2023-08-24T11:15:29;34.90;58.90
50690;DHT22;71367;48.298;11.238;2023-08-24T11:30:33;35.70;53.70
50690;DHT22;71367;48.298;11.238;2023-08-24T11:45:37;36.20;52.40
50690;DHT22;71367;48.298;11.238;2023-08-24T12:00:43;36.70;50.30
50690;DHT22;71367;48.298;11.238;2023-08-24T12:15:48;37.20;50.50
50690;DHT22;71367;48.298;11.238;2023-08-24T12:30:53;37.60;48.70
50690;DHT22;71367;48.298;11.238;2023-08-24T12:45:57;37.80;47.00
50690;DHT22;71367;48.298;11.238;2023-08-24T13:01:00;38.20;45.10
50690;DHT22;71367;48.298;11.238;2023-08-24T13:16:05;38.10;45.70
50690;DHT22;71367;48.298;11.238;2023-08-24T13:31:08;38.60;46.20
50690;DHT22;71367;48.298;11.238;2023-08-24T13:46:12;39.30;45.30
50690;DHT22;71367;48.298;11.238;2023-08-24T14:01:15;39.60;44.40
50690;DHT22;71367;48.298;11.238;2023-08-24T14:16:18;39.50;44.80
50690;DHT22;71367;48.298;11.238;2023-08-24T14:31:22;39.70;43.80
50690;DHT22;71367;48.298;11.238;2023-08-24T14:46:25;39.40;45.80
50690;DHT22;71367;48.298;11.238;2023-08-24T15:01:29;39.50;45.00
50690;DHT22;71367;48.298;11.238;2023-08-24T15:16:33;38.60;47.60
50690;DHT22;71367;48.298;11.238;2023-08-24T15:31:36;37.00;51.60
50690;DHT22;71367;48.298;11.238;2023-08-24T15:46:40;37.50;51.30
50690;DHT22;71367;48.298;11.238;2023-08-24T16:01:44;37.40;51.70
50690;DHT22;71367;48.298;11.238;2023-08-24T16:16:47;37.30;51.80
50690;DHT22;71367;48.298;11.238;2023-08-24T16:31:51;35.90;54.00
50690;DHT22;71367;48.298;11.238;2023-08-24T16:46:54;33.80;58.40
50690;DHT22;71367;48.298;11.238;2023-08-24T17:01:58;32.50;61.50
50690;DHT22;71367;48.298;11.238;2023-08-24T17:17:01;31.20;64.90
50690;DHT22;71367;48.298;11.238;2023-08-24T17:32:05;30.10;67.30
50690;DHT22;71367;48.298;11.238;2023-08-24T17:47:09;29.70;68.10
50690;DHT22;71367;48.298;11.238;2023-08-24T18:02:12;29.00;69.80
50690;DHT22;71367;48.298;11.238;2023-08-24T18:17:16;28.60;70.10
50690;DHT22;71367;48.298;11.238;2023-08-24T18:32:20;28.20;70.30
50690;DHT22;71367;48.298;11.238;2023-08-24T18:47:24;28.00;70.60
50690;DHT22;71367;48.298;11.238;2023-08-24T19:02:27;27.70;72.10
50690;DHT22;71367;48.298;11.238;2023-08-24T19:17:31;27.30;73.50
50690;DHT22;71367;48.298;11.238;2023-08-24T19:32:35;27.00;74.30
50690;DHT22;71367;48.298;11.238;2023-08-24T19:47:39;26.70;75.00
50690;DHT22;71367;48.298;11.238;2023-08-24T20:02:43;26.40;76.40
50690;DHT22;71367;48.298;11.238;2023-08-24T20:17:48;26.30;77.80
